Estación Meteorológica Peña el Pijo (Robertgarden) [ 02/03/23 03:31:15 CET ]

Fecha Hora Presion(HPa) Temp (°C) Humedad % Rocio (°C) Viento ( m/s) Direccion Lluvia 1Hora(mm) Lluvia 24H(mm) LLuvia Total(mm)
2012-Apr-05 01:01:12 999.400 4.3 77 0.6         155.40
2012-Apr-05 02:01:16 999.300 2.8 80 -0.3         155.40
2012-Apr-05 03:08:53 999.000 2.7 83 0.1         155.40
2012-Apr-05 04:04:12 999.200 1.5 84 -1.0         155.40
2012-Apr-05 05:01:10 998.700 2.0 85 -0.3         155.40
2012-Apr-05 06:01:15 998.600 1.9 83 -0.7         155.40
2012-Apr-05 07:01:16 998.500 1.3 84 -1.2         155.40
2012-Apr-05 08:01:16 998.700 0.4 85 -1.8         155.40
2012-Apr-05 09:01:15 999.100 2.4 89 0.7         155.40
2012-Apr-05 10:01:13 999.000 8.6 72 3.8         155.40
2012-Apr-05 11:01:13 999.100 11.5 52 2.0         155.40
2012-Apr-05 12:01:12 999.200 15.3 39 1.4         155.40
2012-Apr-05 13:01:16 998.600 12.8 44 0.8         155.40
2012-Apr-05 14:01:23 998.200 13.8 39 0.0         155.40
2012-Apr-05 15:01:16 998.200 16.7 35 1.0         155.40
2012-Apr-05 16:01:13 997.900 14.8 37 0.1 3.1 SSW     155.40
2012-Apr-05 17:01:12 997.600 13.7 38 -0.5 2.9 S     155.40
2012-Apr-05 18:01:12 997.500 14.6 39 0.8         155.40
2012-Apr-05 19:01:14 997.600 12.7 43 0.4 2.6 S     155.40
2012-Apr-05 20:01:14 997.800 9.9 52 0.5 1.0 W     155.40
2012-Apr-05 21:01:13 998.200 8.3 57 0.2 1.8 SSW     155.40
2012-Apr-05 22:01:13 998.900 7.6 61 0.6         155.40
2012-Apr-05 23:01:17 999.200 7.1 64 0.7         155.40

Temperatura Máxima:16°    Temperatura Mínima:
Presión Máxima:999.400 Hpa    Presión Mínima:997.500 Hpa


Volver